Terminal Aerodrome Forecast
Issued by NWS Sioux Falls, SD

Home | Current Version | Previous Version | Text Only | Print | Product List | Glossary On
Versions: 1 2 3 4 5 6 7 8 9 10 11 12 13 14 15 16 17 18 19 20 21 22 23 24 25 26
000
FTUS43 KFSD 222341
TAFSUX
TAF
KSUX 222341Z 2300/2324 15009KT P6SM -SHRA BKN070 OVC100
     FM230200 11008KT P6SM OVC070
      TEMPO 2302/2305 5SM -SHRA OVC040
     FM230500 11008KT P6SM VCSH BKN035
     FM231200 13010KT P6SM OVC025
     FM232000 14014KT P6SM OVC020
      TEMPO 2320/2324 5SM -SHRA OVC025=

USA.gov is the U.S. government's official web portal to all federal, state and local government web resources and services.